createdAt,value
2023-04-11T00:02:10.006Z,6.80
2023-04-11T00:04:40.155Z,6.80
2023-04-11T00:07:09.366Z,6.80
2023-04-11T00:09:38.083Z,6.80
2023-04-11T00:57:35.427Z,6.00
2023-04-11T01:00:04.931Z,5.90
2023-04-11T01:02:33.896Z,5.90
2023-04-11T01:05:02.695Z,5.80
2023-04-11T01:07:33.289Z,5.70
2023-04-11T01:10:05.668Z,5.60
2023-04-11T01:12:36.911Z,5.60
2023-04-11T01:15:06.430Z,5.60
2023-04-11T01:17:35.169Z,5.50
2023-04-11T01:20:07.876Z,5.50
2023-04-11T01:22:37.904Z,5.50
2023-04-11T01:25:16.794Z,5.50
2023-04-11T01:27:45.594Z,5.50
2023-04-11T01:30:14.403Z,5.50
2023-04-11T01:32:43.056Z,5.50
2023-04-11T01:35:13.432Z,5.50
2023-04-11T01:37:41.983Z,5.40
2023-04-11T01:40:11.319Z,5.50
2023-04-11T01:42:42.068Z,5.50
2023-04-11T01:45:13.154Z,5.50
2023-04-11T01:47:41.820Z,5.40
2023-04-11T01:50:12.168Z,5.50
2023-04-11T01:52:40.850Z,5.40
2023-04-11T01:55:16.443Z,5.40
2023-04-11T01:57:46.330Z,5.50
2023-04-11T02:00:15.915Z,5.60
2023-04-11T02:02:44.910Z,5.60
2023-04-11T02:05:13.530Z,5.50
2023-04-11T02:07:42.308Z,5.50
2023-04-11T02:10:11.214Z,5.40
2023-04-11T02:12:39.765Z,5.40
2023-04-11T02:15:10.404Z,5.40
2023-04-11T02:17:45.641Z,5.30
2023-04-11T02:20:15.417Z,5.30
2023-04-11T02:22:43.958Z,5.30
2023-04-11T02:25:19.579Z,5.30
2023-04-11T02:27:48.084Z,5.30
2023-04-11T02:30:18.992Z,5.30
2023-04-11T02:32:49.514Z,5.30
2023-04-11T02:35:18.697Z,5.30
2023-04-11T02:37:47.257Z,5.40
2023-04-11T02:40:15.923Z,5.40
2023-04-11T02:42:44.732Z,5.50
2023-04-11T02:45:13.394Z,5.60
2023-04-11T02:47:43.359Z,5.50
2023-04-11T02:50:13.193Z,5.50
2023-04-11T02:52:49.440Z,5.40
2023-04-11T02:55:23.269Z,5.40
2023-04-11T02:57:53.015Z,5.30
2023-04-11T03:00:22.779Z,5.30
2023-04-11T03:02:59.262Z,5.20
2023-04-11T03:05:29.384Z,5.20
2023-04-11T03:07:59.057Z,5.20
2023-04-11T03:10:31.316Z,5.20
2023-04-11T03:13:01.956Z,5.20
2023-04-11T03:15:32.625Z,5.20
2023-04-11T03:18:07.482Z,5.20
2023-04-11T03:20:38.812Z,5.20
2023-04-11T03:23:09.027Z,5.20
2023-04-11T03:25:39.041Z,5.20
2023-04-11T03:28:08.718Z,5.20
2023-04-11T03:30:40.289Z,5.20
2023-04-11T03:33:11.776Z,5.30
2023-04-11T03:35:40.325Z,5.30
2023-04-11T03:38:08.869Z,5.30
2023-04-11T03:40:38.035Z,5.30
2023-04-11T03:43:21.468Z,5.20
2023-04-11T03:45:51.786Z,5.20
2023-04-11T03:48:34.740Z,5.10
2023-04-11T03:51:07.947Z,5.10
2023-04-11T03:53:45.446Z,5.20
2023-04-11T03:56:27.547Z,5.20
2023-04-11T03:58:56.326Z,5.20
2023-04-11T04:01:29.280Z,5.20
2023-04-11T04:04:05.184Z,5.30
2023-04-11T04:06:37.941Z,5.20
2023-04-11T04:09:07.524Z,5.20
2023-04-11T04:11:47.841Z,5.30
2023-04-11T04:14:24.443Z,5.20
2023-04-11T04:16:53.816Z,5.20
2023-04-11T04:19:24.861Z,5.30
2023-04-11T04:21:58.179Z,5.40
2023-04-11T04:24:32.113Z,5.60
2023-04-11T04:27:18.265Z,5.90
2023-04-11T04:29:56.516Z,6.30
2023-04-11T04:32:45.156Z,6.60
2023-04-11T04:35:16.857Z,7.00
2023-04-11T04:37:46.662Z,7.20
2023-04-11T04:40:42.845Z,7.40
2023-04-11T04:43:18.455Z,7.60
2023-04-11T04:46:11.157Z,7.40
2023-04-11T04:48:50.560Z,7.30
2023-04-11T04:51:20.810Z,7.10
2023-04-11T04:53:49.274Z,7.20
2023-04-11T04:56:17.774Z,7.30
2023-04-11T04:58:48.946Z,7.40
2023-04-11T05:01:20.599Z,7.50
2023-04-11T05:03:59.257Z,7.50
2023-04-11T05:06:48.379Z,7.50
2023-04-11T05:09:17.962Z,7.40
2023-04-11T05:11:46.740Z,7.30
2023-04-11T05:14:16.596Z,7.20
2023-04-11T05:16:45.852Z,7.00
2023-04-11T05:19:14.400Z,6.90
2023-04-11T05:21:48.883Z,6.80
2023-04-11T05:24:17.672Z,6.80
2023-04-11T05:26:46.232Z,6.70
2023-04-11T05:29:19.337Z,6.70
2023-04-11T05:31:47.898Z,6.70
2023-04-11T05:34:16.519Z,6.70
2023-04-11T05:36:47.359Z,6.80
2023-04-11T05:39:17.305Z,6.90
2023-04-11T05:41:45.859Z,7.00
2023-04-11T05:44:14.533Z,7.10
2023-04-11T05:46:43.103Z,7.20
2023-04-11T05:49:11.745Z,7.30
2023-04-11T05:51:40.404Z,7.50
2023-04-11T05:54:09.097Z,7.90
2023-04-11T05:56:42.376Z,8.60
2023-04-11T05:59:10.946Z,9.40
2023-04-11T06:01:39.975Z,9.80
2023-04-11T06:04:08.784Z,10.00
2023-04-11T06:06:37.452Z,10.10
2023-04-11T06:09:06.110Z,9.80
2023-04-11T06:11:34.730Z,9.60
2023-04-11T06:14:04.725Z,9.40
2023-04-11T06:16:35.592Z,9.10
2023-04-11T06:19:06.238Z,9.00
2023-04-11T06:21:34.820Z,8.80
2023-04-11T06:24:06.906Z,8.60
2023-04-11T06:26:35.480Z,8.40
2023-04-11T06:29:07.386Z,8.40
2023-04-11T06:31:36.234Z,8.30
2023-04-11T06:34:04.763Z,8.20
2023-04-11T06:36:33.616Z,8.20
2023-04-11T06:39:02.206Z,8.10
2023-04-11T06:41:30.990Z,8.10
2023-04-11T06:43:59.810Z,8.10
2023-04-11T06:46:29.802Z,8.10
2023-04-11T06:48:58.417Z,8.20
2023-04-11T06:51:27.212Z,8.20
2023-04-11T06:53:55.938Z,8.30
2023-04-11T06:56:24.680Z,8.30
2023-04-11T06:58:53.265Z,8.30
2023-04-11T07:01:25.548Z,8.40
2023-04-11T07:06:24.127Z,8.60
2023-04-11T07:08:53.647Z,8.70
2023-04-11T07:11:22.280Z,8.80
2023-04-11T07:13:51.068Z,9.00
2023-04-11T07:16:19.731Z,9.20
2023-04-11T07:18:48.848Z,9.30
2023-04-11T07:21:18.754Z,9.40
2023-04-11T07:23:47.624Z,9.60
2023-04-11T07:26:17.103Z,9.70
2023-04-11T07:28:59.574Z,10.00
2023-04-11T07:31:28.168Z,10.20
2023-04-11T07:33:56.850Z,10.60
2023-04-11T07:36:26.938Z,10.60
2023-04-11T07:38:55.563Z,10.90
2023-04-11T07:41:24.122Z,10.90
2023-04-11T07:43:52.762Z,10.80
2023-04-11T07:46:21.239Z,10.80
2023-04-11T07:48:49.855Z,10.90
2023-04-11T07:51:18.934Z,10.90
2023-04-11T07:53:48.898Z,10.90
2023-04-11T07:56:17.399Z,10.80
2023-04-11T07:58:47.087Z,10.80
2023-04-11T08:01:22.704Z,10.90
2023-04-11T08:03:51.521Z,10.90
2023-04-11T08:06:20.181Z,11.00
2023-04-11T08:08:51.238Z,11.00
2023-04-11T08:11:19.799Z,11.10
2023-04-11T08:13:48.336Z,11.20
2023-04-11T08:16:16.952Z,11.10
2023-04-11T08:18:46.267Z,11.20
2023-04-11T08:21:14.941Z,11.20
2023-04-11T08:23:43.479Z,11.30
2023-04-11T08:26:13.404Z,11.30
2023-04-11T08:28:43.103Z,11.40
2023-04-11T08:31:13.454Z,11.40
2023-04-11T08:33:42.295Z,11.50
2023-04-11T08:36:11.714Z,11.60
2023-04-11T08:38:41.792Z,11.50
2023-04-11T08:41:10.388Z,11.60
2023-04-11T08:43:41.021Z,11.60
2023-04-11T08:46:10.036Z,11.60
2023-04-11T08:48:39.487Z,11.80
2023-04-11T08:51:08.845Z,11.90
2023-04-11T08:53:39.204Z,12.00
2023-04-11T08:56:15.171Z,12.10
2023-04-11T08:58:45.354Z,12.30
2023-04-11T09:01:27.365Z,12.20
2023-04-11T09:03:57.080Z,12.20
2023-04-11T09:06:26.915Z,12.30
2023-04-11T09:08:55.576Z,12.40
2023-04-11T09:11:24.146Z,12.50
2023-04-11T09:14:09.263Z,12.60
2023-04-11T09:16:38.327Z,12.70
2023-04-11T09:19:24.235Z,12.90
2023-04-11T09:21:53.232Z,12.80
2023-04-11T09:24:22.838Z,12.90
2023-04-11T09:26:52.537Z,12.90
2023-04-11T09:29:38.034Z,13.00
2023-04-11T09:32:07.252Z,13.20
2023-04-11T09:34:39.545Z,13.40
2023-04-11T09:37:09.931Z,13.40
2023-04-11T09:39:38.492Z,13.30
2023-04-11T09:42:25.354Z,13.30
2023-04-11T09:44:55.389Z,13.30
2023-04-11T09:47:24.008Z,13.30
2023-04-11T09:49:53.884Z,13.30
2023-04-11T09:52:23.083Z,13.50
2023-04-11T09:54:53.008Z,13.60
2023-04-11T09:57:23.859Z,13.60
2023-04-11T09:59:56.705Z,13.90
2023-04-11T10:02:25.364Z,13.90
2023-04-11T10:04:54.786Z,13.80
2023-04-11T10:07:24.234Z,14.00
2023-04-11T10:09:53.471Z,13.90
2023-04-11T10:12:35.394Z,13.80
2023-04-11T10:15:12.806Z,14.10
2023-04-11T10:17:41.964Z,14.10
2023-04-11T10:20:49.903Z,14.30
2023-04-11T10:23:18.516Z,14.50
2023-04-11T10:25:55.399Z,14.40
2023-04-11T10:28:38.855Z,14.30
2023-04-11T10:31:13.253Z,14.20
2023-04-11T10:34:02.403Z,14.20
2023-04-11T10:37:03.617Z,14.10
2023-04-11T10:40:10.417Z,14.00
2023-04-11T10:42:41.867Z,14.10
2023-04-11T10:45:19.033Z,14.30
2023-04-11T10:48:03.586Z,14.50
2023-04-11T10:50:42.193Z,14.40
2023-04-11T10:53:36.667Z,14.60
2023-04-11T10:56:07.273Z,14.60
2023-04-11T10:58:37.965Z,14.80
2023-04-11T11:01:37.310Z,14.70
2023-04-11T11:04:11.892Z,14.70
2023-04-11T11:06:47.554Z,14.90
2023-04-11T11:09:24.450Z,15.00
2023-04-11T11:12:11.149Z,15.00
2023-04-11T11:14:41.103Z,15.10
2023-04-11T11:17:10.006Z,15.30
2023-04-11T11:19:38.708Z,15.30
2023-04-11T11:22:16.285Z,15.40
2023-04-11T11:24:44.997Z,15.50
2023-04-11T11:27:22.717Z,15.50
2023-04-11T11:29:51.915Z,15.60
2023-04-11T11:32:25.402Z,15.80
2023-04-11T11:34:54.176Z,16.00
2023-04-11T11:37:23.311Z,16.10
2023-04-11T11:39:52.360Z,16.30
2023-04-11T11:42:22.676Z,16.40
2023-04-11T11:44:51.293Z,16.60
2023-04-11T11:47:19.838Z,16.60
2023-04-11T11:49:50.107Z,16.60
2023-04-11T11:52:33.454Z,16.50
2023-04-11T11:55:03.307Z,16.40
2023-04-11T11:57:33.508Z,16.20
2023-04-11T12:00:04.144Z,16.00
2023-04-11T12:02:36.504Z,15.90
2023-04-11T12:05:07.750Z,16.20
2023-04-11T12:07:39.220Z,16.20
2023-04-11T12:10:11.903Z,16.00
2023-04-11T12:12:53.059Z,15.80
2023-04-11T12:15:24.281Z,15.60
2023-04-11T12:17:54.192Z,15.40
2023-04-11T12:20:27.537Z,15.30
2023-04-11T12:22:56.385Z,15.00
2023-04-11T12:25:25.991Z,15.10
2023-04-11T12:27:55.931Z,15.20
2023-04-11T12:30:24.576Z,15.30
2023-04-11T12:32:53.287Z,15.40
2023-04-11T12:35:22.137Z,15.60
2023-04-11T12:37:50.901Z,15.60
2023-04-11T12:40:19.704Z,15.50
2023-04-11T12:42:57.021Z,15.60
2023-04-11T12:45:28.277Z,15.60
2023-04-11T12:47:56.823Z,15.40
2023-04-11T12:50:25.449Z,15.20
2023-04-11T12:52:55.189Z,15.20
2023-04-11T12:55:24.898Z,15.10
2023-04-11T12:57:53.473Z,14.90
2023-04-11T13:00:22.315Z,14.50
2023-04-11T13:02:53.679Z,14.10
2023-04-11T13:05:22.980Z,13.60
2023-04-11T13:07:52.178Z,13.30
2023-04-11T13:10:20.787Z,13.10
2023-04-11T13:12:50.759Z,12.90
2023-04-11T13:15:19.506Z,12.90
2023-04-11T13:17:48.176Z,12.80
2023-04-11T13:20:18.083Z,12.60
2023-04-11T13:22:46.675Z,12.40
2023-04-11T13:25:15.265Z,12.30
2023-04-11T13:27:43.869Z,12.10
2023-04-11T13:30:13.502Z,11.80
2023-04-11T13:32:42.157Z,11.60
2023-04-11T13:35:11.406Z,11.40
2023-04-11T13:37:41.972Z,11.30
2023-04-11T13:40:12.410Z,11.10
2023-04-11T13:42:41.267Z,10.80
2023-04-11T13:45:10.705Z,10.20
2023-04-11T13:47:39.395Z,9.50
2023-04-11T13:50:09.836Z,9.10
2023-04-11T13:52:38.367Z,8.90
2023-04-11T13:55:09.252Z,8.70
2023-04-11T13:57:37.844Z,8.60
2023-04-11T14:00:11.243Z,8.50
2023-04-11T14:02:40.784Z,8.50
2023-04-11T14:05:10.817Z,8.40
2023-04-11T14:07:39.289Z,8.40
2023-04-11T14:10:10.141Z,8.40
2023-04-11T14:12:38.726Z,8.40
2023-04-11T14:28:01.307Z,8.20
2023-04-11T14:30:29.974Z,8.20
2023-04-11T14:32:58.597Z,8.10
2023-04-11T14:35:27.158Z,8.10
2023-04-11T14:37:57.143Z,8.10
2023-04-11T14:40:25.705Z,8.20
2023-04-11T14:43:20.747Z,8.10
2023-04-11T14:45:49.353Z,8.10
2023-04-11T14:48:17.935Z,8.10
2023-04-11T14:50:46.470Z,8.20
2023-04-11T14:53:14.934Z,8.10
2023-04-11T14:55:44.682Z,8.20
2023-04-11T14:58:13.276Z,8.20
2023-04-11T15:00:43.326Z,8.10
2023-04-11T15:03:12.446Z,8.20
2023-04-11T15:05:41.191Z,8.20
2023-04-11T15:08:10.028Z,8.20
2023-04-11T15:10:38.590Z,8.20
2023-04-11T15:13:08.963Z,8.20
2023-04-11T15:15:38.055Z,8.10
2023-04-11T15:18:26.044Z,8.10
2023-04-11T15:20:54.848Z,8.00
2023-04-11T15:23:23.796Z,7.90
2023-04-11T15:25:56.055Z,7.90
2023-04-11T15:28:25.623Z,8.00
2023-04-11T15:30:55.503Z,8.00
2023-04-11T15:33:26.600Z,8.00
2023-04-11T15:35:55.776Z,8.00
2023-04-11T15:38:25.416Z,8.00
2023-04-11T15:40:55.317Z,8.00
2023-04-11T15:43:24.749Z,8.00
2023-04-11T15:45:53.390Z,7.90
2023-04-11T15:48:22.015Z,8.00
2023-04-11T15:50:52.572Z,8.00
2023-04-11T15:53:21.268Z,8.00
2023-04-11T15:55:49.798Z,7.90
2023-04-11T15:58:19.946Z,7.90
2023-04-11T16:00:48.459Z,7.90
2023-04-11T16:03:18.060Z,7.90
2023-04-11T16:05:47.370Z,7.90
2023-04-11T16:08:17.639Z,7.90
2023-04-11T16:10:46.200Z,7.90
2023-04-11T16:13:14.704Z,8.00
2023-04-11T16:15:43.249Z,8.00
2023-04-11T16:18:11.889Z,8.00
2023-04-11T16:20:41.089Z,8.00
2023-04-11T16:23:09.741Z,8.10
2023-04-11T16:25:39.649Z,8.10
2023-04-11T16:28:08.324Z,8.10
2023-04-11T16:30:37.030Z,8.10
2023-04-11T16:33:05.720Z,8.10
2023-04-11T16:35:34.411Z,8.10
2023-04-11T16:38:03.485Z,8.10
2023-04-11T16:40:32.298Z,8.10
2023-04-11T16:43:02.271Z,8.10
2023-04-11T16:45:31.336Z,8.10
2023-04-11T16:48:00.512Z,8.10
2023-04-11T16:50:29.291Z,8.10
2023-04-11T16:52:57.855Z,8.10
2023-04-11T16:55:26.461Z,8.10
2023-04-11T16:57:54.970Z,8.10
2023-04-11T17:00:25.347Z,8.10
2023-04-11T17:02:54.056Z,8.10
2023-04-11T17:05:24.016Z,8.00
2023-04-11T17:07:52.686Z,8.00
2023-04-11T17:10:22.340Z,8.10
2023-04-11T17:12:51.239Z,8.10
2023-04-11T17:15:19.820Z,8.10
2023-04-11T17:17:49.704Z,8.10
2023-04-11T17:20:18.320Z,8.10
2023-04-11T17:22:47.085Z,8.10
2023-04-11T17:25:15.724Z,8.10
2023-04-11T17:27:44.329Z,8.10
2023-04-11T17:30:13.726Z,8.00
2023-04-11T17:32:42.417Z,8.00
2023-04-11T17:35:12.650Z,8.00
2023-04-11T17:37:41.199Z,8.00
2023-04-11T17:40:14.524Z,7.90
2023-04-11T17:42:43.441Z,8.00
2023-04-11T17:47:44.824Z,8.00
2023-04-11T17:50:15.483Z,8.00
2023-04-11T17:52:46.248Z,8.00
2023-04-11T17:56:39.850Z,8.00
2023-04-11T17:59:21.168Z,8.10
2023-04-11T18:01:49.887Z,8.10
2023-04-11T18:04:18.808Z,8.00
2023-04-11T18:06:49.081Z,8.00
2023-04-11T18:09:17.717Z,7.90
2023-04-11T18:11:46.470Z,7.90
2023-04-11T18:14:15.109Z,7.80
2023-04-11T18:16:43.742Z,7.80
2023-04-11T18:19:12.388Z,7.70
2023-04-11T18:28:08.359Z,7.60
2023-04-11T18:30:37.138Z,7.60
2023-04-11T18:33:05.808Z,7.50
2023-04-11T18:35:34.509Z,7.50
2023-04-11T18:38:06.300Z,7.50
2023-04-11T18:40:35.402Z,7.50
2023-04-11T18:43:04.289Z,7.40
2023-04-11T18:45:34.321Z,7.40
2023-04-11T18:48:03.130Z,7.40
2023-04-11T18:50:32.018Z,7.40
2023-04-11T18:53:05.023Z,7.40
2023-04-11T18:55:35.413Z,7.30
2023-04-11T18:58:07.616Z,7.30
2023-04-11T19:00:39.671Z,7.40
2023-04-11T19:03:15.277Z,7.30
2023-04-11T19:05:45.464Z,7.40
2023-04-11T19:08:14.354Z,7.40
2023-04-11T19:10:43.070Z,7.40
2023-04-11T19:13:11.843Z,7.30
2023-04-11T19:15:43.198Z,7.30
2023-04-11T19:18:12.191Z,7.40
2023-04-11T19:20:41.056Z,7.40
2023-04-11T19:23:09.831Z,7.40
2023-04-11T19:25:38.612Z,7.50
2023-04-11T19:28:07.340Z,7.60
2023-04-11T19:30:36.346Z,7.60
2023-04-11T19:33:06.518Z,7.60
2023-04-11T19:35:35.395Z,7.60
2023-04-11T19:38:05.911Z,7.60
2023-04-11T19:40:36.336Z,7.60
2023-04-11T19:43:04.973Z,7.50
2023-04-11T19:45:33.688Z,7.50
2023-04-11T19:48:02.445Z,7.50
2023-04-11T19:50:32.511Z,7.50
2023-04-11T19:53:01.722Z,7.50
2023-04-11T19:55:31.124Z,7.40
2023-04-11T19:57:59.712Z,7.40
2023-04-11T20:00:31.999Z,7.40
2023-04-11T20:03:02.593Z,7.30
2023-04-11T20:05:32.855Z,7.30
2023-04-11T20:08:01.406Z,7.30
2023-04-11T20:10:30.669Z,7.20
2023-04-11T20:12:59.346Z,7.20
2023-04-11T20:15:28.000Z,7.10
2023-04-11T20:17:56.885Z,7.00
2023-04-11T20:20:28.061Z,7.00
2023-04-11T20:22:58.193Z,6.90
2023-04-11T20:25:26.781Z,6.90
2023-04-11T20:27:55.335Z,6.90
2023-04-11T20:30:24.160Z,6.90
2023-04-11T20:32:54.017Z,6.90
2023-04-11T21:47:40.404Z,6.40
2023-04-11T21:50:10.256Z,6.40
2023-04-11T21:52:38.833Z,6.40
2023-04-11T21:55:09.188Z,6.30
2023-04-11T21:57:37.772Z,6.30
2023-04-11T22:00:08.445Z,6.30
2023-04-11T22:02:46.456Z,6.30
2023-04-11T22:05:17.583Z,6.20
2023-04-11T22:07:48.741Z,6.20
2023-04-11T22:10:23.886Z,6.20
2023-04-11T22:12:54.038Z,6.20
2023-04-11T22:15:24.306Z,6.10
2023-04-11T22:17:56.553Z,6.10
2023-04-11T22:20:25.301Z,6.10
2023-04-11T22:22:54.182Z,6.00
2023-04-11T22:25:23.280Z,6.00
2023-04-11T22:27:56.332Z,6.00
2023-04-11T22:30:24.994Z,6.00
2023-04-11T22:32:55.681Z,6.00
2023-04-11T22:35:26.096Z,6.00
2023-04-11T22:37:57.354Z,5.90
2023-04-11T22:40:26.047Z,5.90
2023-04-11T22:42:55.247Z,5.90
2023-04-11T22:45:24.553Z,5.80
2023-04-11T22:47:56.966Z,5.80
2023-04-11T22:50:25.612Z,5.80
2023-04-11T22:52:54.885Z,5.80
2023-04-11T22:55:24.865Z,5.80
2023-04-11T22:57:53.397Z,5.80
2023-04-11T23:00:24.169Z,5.80
2023-04-11T23:02:54.184Z,5.70
2023-04-11T23:05:22.914Z,5.70
2023-04-11T23:07:51.813Z,5.60
2023-04-11T23:10:20.400Z,5.60
2023-04-11T23:12:49.538Z,5.60
2023-04-11T23:15:19.428Z,5.50
2023-04-11T23:17:47.966Z,5.50
2023-04-11T23:20:18.269Z,5.40
2023-04-11T23:22:46.775Z,5.40
2023-04-11T23:25:16.190Z,5.40
2023-04-11T23:27:45.983Z,5.40
2023-04-11T23:30:17.588Z,5.40
2023-04-11T23:32:46.353Z,5.40
2023-04-11T23:35:16.981Z,5.30
2023-04-11T23:37:47.369Z,5.30
2023-04-11T23:40:15.911Z,5.30
2023-04-11T23:42:44.495Z,5.30
2023-04-11T23:45:15.058Z,5.30
2023-04-11T23:47:43.654Z,5.30
2023-04-11T23:50:13.727Z,5.20
2023-04-11T23:52:42.895Z,5.20
2023-04-11T23:55:14.379Z,5.20
2023-04-11T23:57:42.898Z,5.20
